Winn, Michigan
Current Conditions -  °F | °C
As of 9:35 PM on Saturday 20 Dec 2014 (Local Time) from KMOP Reporting Station
Overcast Overcast  
Wind Chill: 24°   Ceiling: 4000
Heat Index: 24°   Visibility: 7mi
Dew Point: 23°   Wind: 0mph
Humidity: 95%   Direction: NA
Pressure: 30.27"   Gusts: NA
Location:  43.52°N, 84.9°W
Report Text: KMOP 210235Z AUTO 00000KT 7SM SCT031 BKN040 OVC080 M04/M05 A3027 RMK AO2 T10451052
Loading
Personal Weather Stations






























Interactive Weather Map New forecast layout! Learn more

10-Day Weather Forecast

Advertisements
Track Severe Weather on mobile